Josh Spalsbury Memorial 5K Comet Chase

back to results

Jun. 23, 2012

Josh Spalsbury Memorial 5K Comet Chase
Grand Ledge, MI
Provided by Hickman Race Services LLC


Josh Spalsbury Memorial 5K Comet Chase
Grand Ledge, Michigan
June 16, 2012 Rate this race
187 Registered Entrants


Overall Female Open Winners

Place Name City Age Overall Time Pace
1 Allison Dible Grand Ledge MI 17 10 20:17.1 6:33/M

Overall Female Masters Winners

Place Name City Age Overall Time Pace
1 Maria Skinner Grand Ledge MI 48 24 22:28.5 7:15/M

Overall Female Grand Masters Winners

Place Name City Age Overall Time Pace
1 Tama Snider Grand Ledge MI 51 32 23:42.2 7:39/M

Female 10 and under

Place Name City Age Overall Time Pace
1 Allie Steitz Grand Ledge Mi 9 87 30:04.2 9:42/M
2 Kaitlyn Waldrop Grand Ledge MI 9 108 34:26.2 11:06/M
3 Madelyn Harvey Belmont MI 10 118 35:52.7 11:34/M

Female 11 to 13

Place Name City Age Overall Time Pace
1 Savannah Boak St. Johns MI 13 75 28:27.8 9:11/M
2 Derri Hines Grand Ledge MI 12 86 29:54.9 9:39/M
3 Alexandra Gamble Belmont MI 13 128 37:52.9 12:13/M

Female 14 to 16

Place Name City Age Overall Time Pace
1 Olivia Conway Grand Ledge MI 14 15 21:20.2 6:53/M
2 Krista Magness Grand Ledge MI 16 22 22:09.5 7:09/M
3 Elizabeth Konen Lansing MI 15 53 25:48.7 8:19/M
4 Faith Gray Grand Ledge MI 16 157 51:47.4 16:42/M
5 Grace Steigman Grand Ledge MI 16 161 1:01:02.4 19:41/M

Female 17 to 19

Place Name City Age Overall Time Pace
1 Jaclyn Magness Grand Ledge MI 18 12 20:53.7 6:44/M
2 Brittney Valo Grand Ledge Mi 17 64 27:02.7 8:43/M
3 Caroline Maurer Grand Ledge Mi 19 142 45:20.4 14:37/M

Female 20 to 24

Place Name City Age Overall Time Pace
1 Jessie Rhodes Grand Ledge MI 21 33 23:46.5 7:40/M
2 Sarah Pawlak Lansing MI 20 94 30:55.5 9:58/M
3 Brook Skinner Grand Ledge MI 20 141 45:20.2 14:37/M
4 Jenna Spalsbury Grand Ledge MI 24 155 51:47.0 16:42/M

Female 25 to 29

Place Name City Age Overall Time Pace
1 Heather Toomey Lansing MI 27 48 25:18.1 8:10/M
2 Jodie Schneider Grand Rapids MI 28 69 27:29.7 8:52/M
3 Meghan Hauter 26 73 27:56.0 9:01/M
4 Amber Baker Grand Ledge Mi 29 85 29:46.6 9:36/M
5 Amy Miilu Mulliken MI 28 98 32:07.0 10:22/M
6 Kara Manning Lansing MI 26 105 33:33.7 10:49/M
7 Sara Nelson Grand Ledge MI 25 111 34:41.5 11:11/M
8 Cali Rushton Lansing MI 26 116 35:48.3 11:33/M

Female 30 to 34

Place Name City Age Overall Time Pace
1 Jessica Poort Grand Ledge MI 30 30 23:10.8 7:28/M
2 Amber Slocum 32 38 24:15.5 7:49/M
3 Michelle Crumb Grand Ledge MI 30 39 24:24.4 7:52/M
4 Staci Smith Lansing MI 32 44 25:02.9 8:05/M
5 Gwen Calewarts Grand Ledge MI 33 66 27:08.4 8:45/M
6 Michele Cadwell Grand Ledge MI 30 70 27:35.4 8:54/M
7 Jennifer Hamel Lansing MI 34 90 30:23.0 9:48/M
8 Kelly Lusis Grand Ledge Mi 33 125 37:17.6 12:02/M
9 Vicki McWilliams Marne MI 33 133 39:15.7 12:40/M
10 Jacqui Broughton Lansing MI 30 135 40:27.3 13:03/M
11 Missy Kloeckner Grand Ledge MI 31 151 50:57.0 16:26/M
12 Heather Hicks Lansing MI 33 163 1:11:00.0 22:54/M

Female 35 to 39

Place Name City Age Overall Time Pace
1 Kimberly O'Hare Fowler MI 37 43 24:50.4 8:01/M
2 Jamie Simon Westphalia MI 35 56 26:18.0 8:29/M
3 Laura Miersen Alto MI 37 65 27:07.5 8:45/M
4 Renae Moore Lansing MI 37 67 27:13.2 8:47/M
5 Julie Foster St. Johns MI 39 82 29:26.1 9:30/M
6 Krista Wegenke Grand Ledge MI 36 89 30:06.8 9:43/M
7 Brooke Stuber Lansing MI 38 93 30:46.4 9:55/M
8 Julie Waldrop Grand Ledge MI 35 110 34:35.3 11:09/M
9 Elayne Glantzberg Mason MI 36 124 36:24.5 11:45/M
10 Nikki Almy Grand Ledge MI 36 132 39:10.7 12:38/M
11 Amy Steffen 36 136 40:43.1 13:08/M

Female 40 to 44

Place Name City Age Overall Time Pace
1 Shelly Kowalski Lansing MI 41 41 24:38.2 7:57/M
2 Julie Pozega Grand Ledge MI 44 46 25:12.8 8:08/M
3 Jennifer McCartney Grand Ledge MI 40 63 26:48.4 8:39/M
4 Karenn Vernagus Lansing MI 40 71 27:39.7 8:55/M
5 Kathy Boak St. Johns MI 40 102 33:15.8 10:44/M
6 Amy Kramp Eagle MI 40 115 34:59.7 11:17/M
7 Stephanie Gamble Belmont MI 49306 44 129 38:02.8 12:16/M
8 Stacey Carlson St. Johns MI 41 139 42:40.4 13:46/M
9 April Welton Grand Ledge MI 44 149 47:12.2 15:14/M

Female 45 to 49

Place Name City Age Overall Time Pace
1 Patty Tarr Grand Ledge MI 45 81 29:18.4 9:27/M
2 Barbara Frazier Grand Ledge Mi 48 97 31:49.2 10:16/M
3 Cheryl Baker Portland MI 46 109 34:31.6 11:08/M
4 Mary Beth Smith Grand Ledge Mi 47 112 34:42.6 11:12/M
5 Cindy Toomey Eagle MI 48 113 34:47.7 11:13/M
6 Michelle Soulliere Grand Ledge MI 49 114 34:55.6 11:16/M
7 Ann Anderson Grand Ledge MI 46 130 38:42.3 12:29/M
8 Sharon Gerrish Dewitt MI 49 131 39:10.5 12:38/M
9 Danette Gross Williamston MI 46 146 47:08.3 15:12/M

Female 50 to 54

Place Name City Age Overall Time Pace
1 Sue Pifer Fulton MI 51 61 26:37.1 8:35/M
2 Carey Smith Blacklick OH 51 77 28:42.9 9:15/M
3 Therese Covell Parma Heights OH 54 83 29:36.5 9:33/M
4 Jill Bell Dansville MI 52 84 29:44.8 9:35/M
5 Beth Nelson Grand Ledge MI 51 91 30:25.2 9:49/M
6 Cheryl Bendon Grand Ledge Mi 54 95 31:26.3 10:08/M
7 Theresa Pohl Westphalia MI 53 96 31:35.6 10:11/M
8 Caroline Kennedy Gladstone MI 50 107 34:23.9 11:05/M
9 Julie Templin Grand Ledge Mi 53 120 35:59.5 11:36/M
10 Gail Pawlak Lansing MI 50 121 35:59.7 11:36/M
11 Lisa Stuecken Eagle MI 48822 51 127 37:44.1 12:10/M
12 Deborah Maurer 52 143 45:23.1 14:38/M
13 Karin Mercieca Eagle MI 50 147 47:08.5 15:12/M
14 Jennifer McCrumb Grand Ledge Mi 54 153 51:41.1 16:40/M
15 Pam Latka Lansing MI 52 154 51:42.1 16:41/M
16 Kathy Spalsbury Grand Ledge MI 54 156 51:47.4 16:42/M
17 Debra Schefke Grand Ledge MI 51 158 51:49.7 16:43/M
18 Deb Parker Lansing MI 50 159 51:50.4 16:43/M
19 Jeanne Tomasek Grand Ledge Mi 50 160 57:08.5 18:26/M

Female 55 to 59

Place Name City Age Overall Time Pace
1 Cheryl Farquhar Lansing MI 55 92 30:39.2 9:53/M
2 Peggy Couturier Haslett MI 56 138 42:16.2 13:38/M
3 Deb McDaniels Grand Ledge MI 57 145 47:05.6 15:11/M

Female 60 to 64

Place Name City Age Overall Time Pace
1 Sue Sackett Grand Ledge MI 62 134 39:51.4 12:51/M

Overall Male Open Winners

Place Name City Age Overall Time Pace
1 Ryan Konen Grand Ledge MI 20 1 16:08.3 5:12/M

Overall Male Masters Winners

Place Name City Age Overall Time Pace
1 Eric Stuber Lansing MI 48 3 17:00.0 5:29/M

Overall Male Grand Masters Winners

Place Name City Age Overall Time Pace
1 Eric Stockall Okemos MI 51 14 21:03.6 6:47/M

Male 10 and Under

Place Name City Age Overall Time Pace
1 Zane Perrault Mason MI 10 31 23:33.1 7:36/M
2 Namith Kennedy Gladstone MI 6 80 29:14.4 9:26/M
3 Vijay Kennedy Gladstone MI 9 106 33:44.3 10:53/M
4 Lorenzo Alvarez Grand Ledge Mi 9 122 36:01.2 11:37/M
5 Blair Steigman Grand Ledge MI 9 148 47:12.0 15:14/M

Male 11 to 13

Place Name City Age Overall Time Pace
1 Ryan Kramer 13 6 19:03.2 6:09/M
2 Tyler McCartney Grand Ledge MI 13 11 20:36.6 6:39/M
3 Tyler steinhelper Fowlerville MI 13 13 21:01.6 6:47/M
4 Logan Kroczaleski Grand Ledge MI 13 35 24:07.1 7:47/M
5 Benjamin Stuecken Eagle MI 48822 11 40 24:34.0 7:55/M
6 Mason Kowalski Lansing MI 11 59 26:28.9 8:32/M
7 Seth Steitz Grand Ledge Mi 12 88 30:05.7 9:42/M
8 Charlie Boak St. Johns MI 12 101 33:15.6 10:44/M
9 David Pozega Grand Ledge MI 12 144 46:34.1 15:01/M

Male 14 to 16

Place Name City Age Overall Time Pace
1 Nathan Megge Grand Ledge Mi 16 5 18:01.3 5:49/M
2 Mitch Harvey Belmont MI 14 9 20:11.3 6:31/M
3 Nik Steitz Grand Ledge Mi 15 16 21:20.3 6:53/M
4 Samual Kirkey Grand Ledge Mi 16 52 25:48.5 8:19/M
5 Tony McCrackin Eagle MI 16 103 33:18.9 10:45/M

Male 17 to 19

Place Name City Age Overall Time Pace
1 Tyler Bannhard Lansing MI 17 7 19:08.4 6:10/M
2 Zach Hodgman Holt MI 19 8 20:09.2 6:30/M
3 Tommy Maurer 17 29 23:02.0 7:26/M
4 Conrad Badillo Grand Ledge MI 18 162 1:01:02.7 19:41/M

Male 20 to 24

Place Name City Age Overall Time Pace
1 Brian Lucas Grand Ledge MI 20 2 16:17.6 5:15/M
2 Dan Lucas Grand Ledge MI 23 4 17:11.1 5:33/M
3 Dan Pawlak Lansing MI 21 20 21:58.0 7:05/M
4 Justin Olson Grand Ledge MI 23 21 22:03.6 7:07/M
5 Daniel Linder Dewitt MI 21 37 24:13.0 7:49/M
6 Ryan Hauter Lyons MI 24 50 25:42.4 8:17/M

Male 25 to 29

Place Name City Age Overall Time Pace
1 Jarred Spalsbury Grand Ledge MI 28 25 22:35.9 7:17/M
2 Brent Rushton Lansing MI 26 117 35:48.6 11:33/M

Male 30 to 34

Place Name City Age Overall Time Pace
1 Charlie Pantera Grand Ledge Mi 32 18 21:37.5 6:58/M
2 Brian VanBeveren Holland MI 33 19 21:41.5 7:00/M
3 Mulyanto Poort Grand Ledge MI 30 58 26:24.1 8:31/M
4 Jeremy Coon Commerce Twp MI 30 62 26:44.6 8:37/M

Male 35 to 39

Place Name City Age Overall Time Pace
1 Jamy Hengesbach Grand Ledge MI 37 34 24:01.0 7:45/M

Male 40 to 44

Place Name City Age Overall Time Pace
1 Steve Steitz Grand Ledge MI 41 23 22:17.2 7:11/M
2 Matt Scott Westphalia MI 43 42 24:47.1 8:00/M
3 Randy Theis Fowler MI 43 49 25:18.2 8:10/M
4 Lon Moored Allegan MI 41 123 36:18.0 11:43/M
5 Jon Freburg Holt MI 42 126 37:20.6 12:03/M

Male 45 to 49

Place Name City Age Overall Time Pace
1 Mark Kennedy Gladstone MI 49 17 21:23.9 6:54/M
2 Bill Kurzynowski Grand Ledge Mi 48 26 22:44.4 7:20/M
3 Joseph Frazier Grand Ledge Mi 45 60 26:32.4 8:34/M
4 Jeff Moore Lansing MI 48 68 27:19.8 8:49/M
5 Tom Burris Grand Ledge MI 46 78 28:59.6 9:21/M
6 David Smith Grand Ledge MI 49 100 32:43.3 10:33/M
7 Garry Gross Williamston MI 49 150 47:12.5 15:14/M
8 Brenda Cisel Grand Ledge MI 46 152 51:00.2 16:27/M

Male 50 to 54

Place Name City Age Overall Time Pace
1 Tom Stuecken Eagle MI 48822 50 28 22:52.8 7:23/M
2 Bruce Linder Dewitt MI 54 36 24:12.8 7:48/M
3 Paul Pozega Grand Ledge MI 52 45 25:04.8 8:05/M
4 Tim Skinner Grand Ledge MI 52 47 25:15.9 8:09/M
5 Eric Washburn Lansing MI 50 54 26:06.6 8:25/M
6 John Pawlak Lansing MI 52 57 26:20.3 8:30/M
7 John Maurer 50 72 27:42.1 8:56/M
8 Larry Bell Dansville MI 50 76 28:30.6 9:12/M
9 Jeff Harvey Belmont MI 50 119 35:53.0 11:35/M
10 Bruce Welton Grand Ledge MI 51 137 42:11.1 13:36/M

Male 55 to 59

Place Name City Age Overall Time Pace
1 Tom Nelson Grand Ledge MI 55 27 22:48.2 7:21/M
2 Phil Perkins Grand Ledge MI 58 99 32:35.0 10:31/M
3 Doug McDaniels Grand Ledge MI 58 140 43:13.0 13:56/M

Male 60 to 64

Place Name City Age Overall Time Pace
1 Fred Moore Holt MI 63 51 25:46.9 8:19/M
2 David Sterley Lansing MI 60 55 26:09.2 8:26/M
3 Dan Templin Grand Ledge Mi 61 104 33:28.1 10:48/M

Male 65 to 69

Place Name City Age Overall Time Pace
1 Jim Brandt Grand Ledge MI 66 79 29:08.4 9:24/M

Male 70 to 96

Place Name City Age Overall Time Pace
1 James Mowery Lansing MI 71 74 28:06.3 9:04/M


400 Meter Kids Run

Place Name City Age Age Group Time Pace
1 Shaye Steitz Grand Ledge Mi 7 F 1:46.9 4:25/K
2 Caitlin Hunt Mason MI 12 F 2:07.4 5:18/K
3 Tamara Flunt Mason MI 12 F 2:40.6 6:40/K
4 Max Stuber Lansing MI 4 M 3:44.3 9:20/K
5 McWilliams Quinn Marne MI 2 F 3:57.5 9:53/K

Page Last Updated June 16, 2012
Race results by: Hickman Race Services (517) 203-0070 email: timhickman@comcast.net